METAR AND TAF INFORMATION
METAR FOR TNCM
ADDS - METARS form results

(0138 UTC 24 March 2019)
Data provider http://aviationweather.gov/metar/data/
 
METAR text: TNCM 240100Z 08008KT 040V120 9999 FEW019 26/21 Q1019 NOSIG RMK A3011
Conditions at: TNCM (ST MAARTEN JULIA, VI) observed 0100 UTC 24 March 2019
Temperature: 26.0°C (79°F)
Dewpoint: 21.0°C (70°F) [RH = 74%]
Pressure (altimeter): 30.09 inches Hg (1019.0 mb)
Winds: from the E (80 degrees) at 9 MPH (8 knots; 4.1 m/s)
Visibility: 6 or more miles (10+ km)
Ceiling: at least 12,000 feet AGL
Clouds: few clouds at 1900 feet AGL
Weather: no significant weather observed at this time

Forecast for: TNCM (ST MAARTEN JULIA, VI)
Text: TNCM 232338Z 2400/2424 09009KT P6SM SCT020
Forecast period: 0000 UTC 24 March 2019 to 0000 UTC 25 March 2019
Forecast type: FROM: standard forecast or significant change
Winds: from the E (90 degrees) at 10 MPH (9 knots; 4.6 m/s)
Visibility: 6 or more miles 10+ km)
Ceiling: at least 12,000 feet AGL
Clouds: scattered clouds at 2000 feet AGL
Weather: no significant weather forecast for this period

 AIRPORT MAP

 RUNWAY INFORMATION

 AIRPORT FREQUENCIES
Type APP Name JULIANA AP Frequency 128.95 MHZ
Type TWR Name JULIANA TW Frequency 118.7 MHZ

 AIRPORT NEAR NAVIGATION AIDS
Type NDB Name St.mMarten Frequency 284 KHZ
Type VOR-DME Name St.mMarten Frequency 113000 KHZ



2018 Air Astana Virtual Airline